createdAt,value
2018-05-04T00:00:15.922Z,63.10
2018-05-04T00:02:43.930Z,63.60
2018-05-04T00:05:11.980Z,63.60
2018-05-04T00:07:40.090Z,64.20
2018-05-04T00:10:08.237Z,64.30
2018-05-04T00:12:36.294Z,64.60
2018-05-04T00:15:04.376Z,64.40
2018-05-04T00:17:32.490Z,64.50
2018-05-04T00:20:00.580Z,65.00
2018-05-04T00:22:28.618Z,64.20
2018-05-04T00:24:56.662Z,64.10
2018-05-04T00:27:24.749Z,64.80
2018-05-04T00:29:52.823Z,65.10
2018-05-04T00:32:22.426Z,65.40
2018-05-04T00:34:51.241Z,65.70
2018-05-04T00:37:19.310Z,65.60
2018-05-04T00:39:47.359Z,65.30
2018-05-04T00:42:15.425Z,65.60
2018-05-04T00:44:43.485Z,65.70
2018-05-04T00:47:11.570Z,66.10
2018-05-04T00:49:39.622Z,66.20
2018-05-04T00:52:07.699Z,66.10
2018-05-04T00:54:35.770Z,66.00
2018-05-04T00:57:03.827Z,66.00
2018-05-04T00:59:31.907Z,66.50
2018-05-04T01:01:59.933Z,66.30
2018-05-04T01:04:28.770Z,66.00
2018-05-04T01:06:56.857Z,65.80
2018-05-04T01:09:24.906Z,65.60
2018-05-04T01:11:52.941Z,66.30
2018-05-04T01:14:21.791Z,66.50
2018-05-04T01:16:50.604Z,66.10
2018-05-04T01:19:18.664Z,66.30
2018-05-04T01:21:46.706Z,66.50
2018-05-04T01:24:14.750Z,66.30
2018-05-04T01:26:42.829Z,66.10
2018-05-04T01:29:10.861Z,66.10
2018-05-04T01:31:38.907Z,66.20
2018-05-04T01:34:06.985Z,66.60
2018-05-04T01:36:35.230Z,67.60
2018-05-04T01:39:03.324Z,66.90
2018-05-04T01:41:31.343Z,66.60
2018-05-04T01:44:00.158Z,66.80
2018-05-04T01:46:28.231Z,66.50
2018-05-04T01:48:56.327Z,67.00
2018-05-04T01:51:24.366Z,66.90
2018-05-04T01:53:52.402Z,66.50
2018-05-04T01:56:21.245Z,68.60
2018-05-04T01:58:49.369Z,67.00
2018-05-04T02:01:18.276Z,67.80
2018-05-04T02:03:46.381Z,67.00
2018-05-04T02:06:14.452Z,66.80
2018-05-04T02:08:42.525Z,66.60
2018-05-04T02:11:10.593Z,66.70
2018-05-04T02:13:38.652Z,67.20
2018-05-04T02:16:06.739Z,67.60
2018-05-04T02:18:34.806Z,68.20
2018-05-04T02:21:02.877Z,68.60
2018-05-04T02:23:30.969Z,69.10
2018-05-04T02:25:58.977Z,69.00
2018-05-04T02:28:27.808Z,69.30
2018-05-04T02:30:55.837Z,68.80
2018-05-04T02:33:24.639Z,71.00
2018-05-04T02:35:52.749Z,70.90
2018-05-04T02:38:20.792Z,71.70
2018-05-04T02:40:48.833Z,71.70
2018-05-04T02:43:17.666Z,72.00
2018-05-04T02:45:45.710Z,72.00
2018-05-04T02:48:14.529Z,72.50
2018-05-04T02:50:42.585Z,72.50
2018-05-04T02:53:10.672Z,72.50
2018-05-04T02:55:38.707Z,72.70
2018-05-04T02:58:07.528Z,73.10
2018-05-04T03:00:35.634Z,72.40
2018-05-04T03:03:03.675Z,73.10
2018-05-04T03:05:31.889Z,72.70
2018-05-04T03:08:00.049Z,72.70
2018-05-04T03:10:28.072Z,72.50
2018-05-04T03:12:56.143Z,74.10
2018-05-04T03:15:24.952Z,74.60
2018-05-04T03:17:52.999Z,74.10
2018-05-04T03:20:21.837Z,74.80
2018-05-04T03:22:49.902Z,74.70
2018-05-04T03:25:17.990Z,74.70
2018-05-04T03:27:46.018Z,74.70
2018-05-04T03:30:14.046Z,75.60
2018-05-04T03:32:42.887Z,76.30
2018-05-04T03:35:10.933Z,75.30
2018-05-04T03:37:38.987Z,75.80
2018-05-04T03:40:08.609Z,76.10
2018-05-04T03:42:36.672Z,75.70
2018-05-04T03:45:05.493Z,76.20
2018-05-04T03:47:33.506Z,76.20
2018-05-04T03:50:01.590Z,76.70
2018-05-04T03:52:30.414Z,77.40
2018-05-04T03:54:59.239Z,76.20
2018-05-04T03:57:39.256Z,76.10
2018-05-04T04:00:19.084Z,76.10
2018-05-04T04:02:59.807Z,76.40
2018-05-04T04:05:27.839Z,75.80
2018-05-04T04:07:56.778Z,75.90
2018-05-04T04:10:24.831Z,76.20
2018-05-04T04:12:52.890Z,76.10
2018-05-04T04:15:20.920Z,75.20
2018-05-04T04:17:49.729Z,75.60
2018-05-04T04:20:17.781Z,75.10
2018-05-04T04:22:46.601Z,74.80
2018-05-04T04:25:14.657Z,74.10
2018-05-04T04:27:42.766Z,74.00
2018-05-04T04:30:10.843Z,74.50
2018-05-04T04:32:38.910Z,74.40
2018-05-04T04:35:06.955Z,73.90
2018-05-04T04:37:35.043Z,74.30
2018-05-04T04:40:03.101Z,72.30
2018-05-04T04:42:31.166Z,72.80
2018-05-04T04:44:59.291Z,71.90
2018-05-04T04:47:27.347Z,71.20
2018-05-04T04:49:55.503Z,71.00
2018-05-04T04:52:23.564Z,71.30
2018-05-04T04:54:51.634Z,71.10
2018-05-04T04:57:19.697Z,72.20
2018-05-04T04:59:47.771Z,70.10
2018-05-04T05:02:15.811Z,70.10
2018-05-04T05:04:44.643Z,70.10
2018-05-04T05:07:12.696Z,69.50
2018-05-04T05:09:40.724Z,68.10
2018-05-04T05:12:08.794Z,66.70
2018-05-04T05:14:36.861Z,66.00
2018-05-04T05:17:04.895Z,66.40
2018-05-04T05:19:33.004Z,66.60
2018-05-04T05:22:01.137Z,66.90
2018-05-04T05:24:29.229Z,66.70
2018-05-04T05:26:57.301Z,66.40
2018-05-04T05:29:25.422Z,66.60
2018-05-04T05:31:53.907Z,66.50
2018-05-04T05:34:21.979Z,67.20
2018-05-04T05:36:51.516Z,66.70
2018-05-04T05:39:19.639Z,66.60
2018-05-04T05:41:48.548Z,59.30
2018-05-04T05:44:16.639Z,53.60
2018-05-04T05:46:44.714Z,47.70
2018-05-04T05:49:12.766Z,47.90
2018-05-04T05:51:40.843Z,44.30
2018-05-04T05:54:08.863Z,39.30
2018-05-04T05:56:36.919Z,35.20
2018-05-04T05:59:05.042Z,33.20
2018-05-04T06:01:33.115Z,31.90
2018-05-04T06:04:01.218Z,30.50
2018-05-04T06:06:30.038Z,29.00
2018-05-04T06:08:58.113Z,28.10
2018-05-04T06:11:26.216Z,27.70
2018-05-04T06:13:54.225Z,26.80
2018-05-04T06:16:22.318Z,24.40
2018-05-04T06:18:50.371Z,25.00
2018-05-04T06:21:18.413Z,24.80
2018-05-04T06:23:46.576Z,24.40
2018-05-04T06:26:14.590Z,22.70
2018-05-04T06:28:42.641Z,23.20
2018-05-04T06:31:10.705Z,22.50
2018-05-04T06:33:38.757Z,22.20
2018-05-04T06:36:06.841Z,22.30
2018-05-04T06:38:34.899Z,20.30
2018-05-04T06:41:03.724Z,19.90
2018-05-04T06:43:31.783Z,19.80
2018-05-04T06:45:59.834Z,19.10
2018-05-04T06:48:27.952Z,19.50
2018-05-04T06:50:55.992Z,19.20
2018-05-04T06:53:24.091Z,19.10
2018-05-04T06:55:52.857Z,18.90
2018-05-04T06:58:21.048Z,18.80
2018-05-04T07:00:49.090Z,18.60
2018-05-04T07:03:17.188Z,17.00
2018-05-04T07:05:45.266Z,17.40
2018-05-04T07:08:13.334Z,17.60
2018-05-04T07:10:41.367Z,16.80
2018-05-04T07:13:10.256Z,16.50
2018-05-04T07:15:38.283Z,16.50
2018-05-04T07:18:06.299Z,16.50
2018-05-04T07:20:34.406Z,15.40
2018-05-04T07:23:02.439Z,15.80
2018-05-04T07:25:30.500Z,16.00
2018-05-04T07:27:59.317Z,15.50
2018-05-04T07:30:27.365Z,15.50
2018-05-04T07:32:55.433Z,13.70
2018-05-04T07:35:24.246Z,14.10
2018-05-04T07:37:52.278Z,12.90
2018-05-04T07:40:20.387Z,12.90
2018-05-04T07:42:48.442Z,13.50
2018-05-04T07:45:16.490Z,12.90
2018-05-04T07:47:44.553Z,13.30
2018-05-04T07:50:12.660Z,12.50
2018-05-04T07:52:40.833Z,12.30
2018-05-04T07:55:08.916Z,12.30
2018-05-04T07:57:36.954Z,12.70
2018-05-04T08:00:06.754Z,12.40
2018-05-04T08:02:34.775Z,11.50
2018-05-04T08:05:03.091Z,11.80
2018-05-04T08:07:31.126Z,11.70
2018-05-04T08:10:00.017Z,11.50
2018-05-04T08:12:28.810Z,10.20
2018-05-04T08:14:56.869Z,10.60
2018-05-04T08:17:25.526Z,10.50
2018-05-04T08:19:54.344Z,10.70
2018-05-04T08:22:22.405Z,10.50
2018-05-04T08:24:50.472Z,10.40
2018-05-04T08:27:18.538Z,10.80
2018-05-04T08:29:47.331Z,10.60
2018-05-04T08:32:15.420Z,10.60
2018-05-04T08:34:43.547Z,10.00
2018-05-04T08:37:11.634Z,9.70
2018-05-04T08:39:39.715Z,9.90
2018-05-04T08:42:07.737Z,9.20
2018-05-04T08:44:35.810Z,9.60
2018-05-04T08:47:03.840Z,9.30
2018-05-04T08:49:31.945Z,9.50
2018-05-04T08:52:00.015Z,9.70
2018-05-04T08:54:28.198Z,9.50
2018-05-04T08:56:56.101Z,9.30
2018-05-04T08:59:24.925Z,9.20
2018-05-04T09:01:52.969Z,9.10
2018-05-04T09:04:21.022Z,8.60
2018-05-04T09:06:49.065Z,8.90
2018-05-04T09:09:17.239Z,8.90
2018-05-04T09:11:45.301Z,8.50
2018-05-04T09:14:13.369Z,8.70
2018-05-04T09:16:41.401Z,8.80
2018-05-04T09:19:10.190Z,9.40
2018-05-04T09:21:38.239Z,9.40
2018-05-04T09:24:07.043Z,9.40
2018-05-04T09:26:35.878Z,9.10
2018-05-04T09:29:03.935Z,9.10
2018-05-04T09:31:32.002Z,9.30
2018-05-04T09:34:00.052Z,9.40
2018-05-04T09:36:28.945Z,9.80
2018-05-04T09:38:56.967Z,9.80
2018-05-04T09:41:25.001Z,9.30
2018-05-04T09:43:53.083Z,8.10
2018-05-04T09:46:21.144Z,7.90
2018-05-04T09:48:49.218Z,8.70
2018-05-04T09:51:17.282Z,8.80
2018-05-04T09:53:45.324Z,8.70
2018-05-04T09:56:14.173Z,8.90
2018-05-04T09:58:42.277Z,9.40
2018-05-04T10:01:10.485Z,7.90
2018-05-04T10:03:38.567Z,8.40
2018-05-04T10:06:06.538Z,8.20
2018-05-04T10:08:34.563Z,9.10
2018-05-04T10:11:03.354Z,9.70
2018-05-04T10:13:31.832Z,9.10
2018-05-04T10:15:59.873Z,8.50
2018-05-04T10:18:28.724Z,8.70
2018-05-04T10:20:57.160Z,9.50
2018-05-04T10:23:25.223Z,9.60
2018-05-04T10:25:53.254Z,10.20
2018-05-04T10:28:21.316Z,10.60
2018-05-04T10:30:50.103Z,11.50
2018-05-04T10:33:18.178Z,11.50
2018-05-04T10:35:46.249Z,12.10
2018-05-04T10:38:15.266Z,11.50
2018-05-04T10:40:43.216Z,11.00
2018-05-04T10:43:11.276Z,11.40
2018-05-04T10:45:40.091Z,10.50
2018-05-04T10:48:08.127Z,10.40
2018-05-04T10:50:36.966Z,10.50
2018-05-04T10:53:05.003Z,10.30
2018-05-04T10:55:33.071Z,10.40
2018-05-04T10:58:01.150Z,10.90
2018-05-04T11:00:29.198Z,11.20
2018-05-04T11:02:58.021Z,11.10
2018-05-04T11:05:26.122Z,11.10
2018-05-04T11:07:54.170Z,11.40
2018-05-04T11:10:22.205Z,11.50
2018-05-04T11:12:50.313Z,12.00
2018-05-04T11:15:18.368Z,12.50
2018-05-04T11:17:46.405Z,12.30
2018-05-04T11:20:15.222Z,12.60
2018-05-04T11:22:43.272Z,12.40
2018-05-04T11:25:12.097Z,12.40
2018-05-04T11:27:40.200Z,12.40
2018-05-04T11:30:08.227Z,12.70
2018-05-04T11:32:36.284Z,13.90
2018-05-04T11:35:04.382Z,15.00
2018-05-04T11:37:32.457Z,15.40
2018-05-04T11:40:00.499Z,14.90
2018-05-04T11:42:28.568Z,14.90
2018-05-04T11:44:57.417Z,15.40
2018-05-04T11:47:25.436Z,15.30
2018-05-04T11:49:53.472Z,14.50
2018-05-04T11:52:21.542Z,14.90
2018-05-04T11:54:49.646Z,15.00
2018-05-04T11:57:17.669Z,16.20
2018-05-04T11:59:47.225Z,17.40
2018-05-04T12:02:15.293Z,16.80
2018-05-04T12:04:43.357Z,17.20
2018-05-04T12:07:12.170Z,17.30
2018-05-04T12:09:40.243Z,17.30
2018-05-04T12:12:08.310Z,17.30
2018-05-04T12:14:36.383Z,17.50
2018-05-04T12:17:04.466Z,17.20
2018-05-04T12:19:32.525Z,17.20
2018-05-04T12:22:00.582Z,17.60
2018-05-04T12:24:28.627Z,15.50
2018-05-04T12:26:56.694Z,18.10
2018-05-04T12:29:24.834Z,17.70
2018-05-04T12:31:52.891Z,17.70
2018-05-04T12:34:21.314Z,17.40
2018-05-04T12:36:49.445Z,17.40
2018-05-04T12:39:17.506Z,18.30
2018-05-04T12:41:45.546Z,18.20
2018-05-04T12:44:14.376Z,18.00
2018-05-04T12:46:42.417Z,17.90
2018-05-04T12:49:11.261Z,19.10
2018-05-04T12:51:39.346Z,18.20
2018-05-04T12:54:07.424Z,18.20
2018-05-04T12:56:35.605Z,18.50
2018-05-04T12:59:03.673Z,18.20
2018-05-04T13:01:31.771Z,19.00
2018-05-04T13:03:59.822Z,18.30
2018-05-04T13:06:27.912Z,19.10
2018-05-04T13:08:55.988Z,18.10
2018-05-04T13:11:24.032Z,19.00
2018-05-04T13:13:52.849Z,20.30
2018-05-04T13:16:20.910Z,20.10
2018-05-04T13:18:48.966Z,20.40
2018-05-04T13:21:17.790Z,21.40
2018-05-04T13:23:45.866Z,21.40
2018-05-04T13:26:13.913Z,21.30
2018-05-04T13:28:42.730Z,20.90
2018-05-04T13:31:10.824Z,20.90
2018-05-04T13:33:39.017Z,21.20
2018-05-04T13:36:07.215Z,20.80
2018-05-04T13:38:36.063Z,21.40
2018-05-04T13:41:04.090Z,21.40
2018-05-04T13:43:32.149Z,21.30
2018-05-04T13:46:01.848Z,21.90
2018-05-04T13:48:30.686Z,22.10
2018-05-04T13:50:58.725Z,21.90
2018-05-04T13:53:26.774Z,21.60
2018-05-04T13:55:55.626Z,22.10
2018-05-04T13:58:23.743Z,21.40
2018-05-04T14:00:51.793Z,21.90
2018-05-04T14:03:21.378Z,22.60
2018-05-04T14:05:49.448Z,22.60
2018-05-04T14:08:17.480Z,23.10
2018-05-04T14:10:45.525Z,23.00
2018-05-04T14:13:14.343Z,22.60
2018-05-04T14:15:42.397Z,22.60
2018-05-04T14:18:11.354Z,23.20
2018-05-04T14:20:39.518Z,23.20
2018-05-04T14:23:07.606Z,23.00
2018-05-04T14:25:35.754Z,24.40
2018-05-04T14:28:03.793Z,23.40
2018-05-04T14:30:31.848Z,23.60
2018-05-04T14:33:00.638Z,23.80
2018-05-04T14:35:29.467Z,23.80
2018-05-04T14:37:57.497Z,23.80
2018-05-04T14:40:26.331Z,23.40
2018-05-04T14:42:54.488Z,23.40
2018-05-04T14:45:22.472Z,23.00
2018-05-04T14:47:53.233Z,22.80
2018-05-04T14:50:21.316Z,22.80
2018-05-04T14:52:49.423Z,22.70
2018-05-04T14:55:18.245Z,23.00
2018-05-04T14:57:46.797Z,22.70
2018-05-04T15:00:14.869Z,22.40
2018-05-04T15:02:44.409Z,22.90
2018-05-04T15:05:12.458Z,23.30
2018-05-04T15:07:40.490Z,23.60
2018-05-04T15:10:08.532Z,23.60
2018-05-04T15:12:36.581Z,23.40
2018-05-04T15:15:04.646Z,24.00
2018-05-04T15:17:32.694Z,25.20
2018-05-04T15:20:01.522Z,23.40
2018-05-04T15:22:29.601Z,23.40
2018-05-04T15:24:57.696Z,23.50
2018-05-04T15:27:25.724Z,23.90
2018-05-04T15:29:53.762Z,24.00
2018-05-04T15:32:21.836Z,24.00
2018-05-04T15:34:50.671Z,24.30
2018-05-04T15:37:18.733Z,24.30
2018-05-04T15:39:46.794Z,24.50
2018-05-04T15:42:14.862Z,24.40
2018-05-04T15:44:42.935Z,24.40
2018-05-04T15:47:11.022Z,24.40
2018-05-04T15:49:39.085Z,25.60
2018-05-04T15:52:07.164Z,24.80
2018-05-04T15:54:35.264Z,25.00
2018-05-04T15:57:03.291Z,24.70
2018-05-04T15:59:31.362Z,24.70
2018-05-04T16:01:59.517Z,24.90
2018-05-04T16:04:27.541Z,25.30
2018-05-04T16:06:55.602Z,24.90
2018-05-04T16:09:23.645Z,25.30
2018-05-04T16:11:51.734Z,25.00
2018-05-04T16:14:19.804Z,25.70
2018-05-04T16:16:48.554Z,25.90
2018-05-04T16:19:16.574Z,26.20
2018-05-04T16:21:44.701Z,26.50
2018-05-04T16:24:12.706Z,25.80
2018-05-04T16:26:40.765Z,25.70
2018-05-04T16:29:08.919Z,25.70
2018-05-04T16:31:36.912Z,26.20
2018-05-04T16:34:04.978Z,26.20
2018-05-04T16:36:33.039Z,26.10
2018-05-04T16:39:01.120Z,26.30
2018-05-04T16:41:29.157Z,26.70
2018-05-04T16:46:32.492Z,26.50
2018-05-04T16:49:06.270Z,26.70
2018-05-04T16:51:35.066Z,27.40
2018-05-04T16:54:03.902Z,27.40
2018-05-04T16:56:32.042Z,27.00
2018-05-04T16:59:00.094Z,27.10
2018-05-04T17:01:28.916Z,27.40
2018-05-04T17:03:56.962Z,27.00
2018-05-04T17:06:25.447Z,27.30
2018-05-04T17:08:53.462Z,27.70
2018-05-04T17:11:21.517Z,27.40
2018-05-04T17:13:49.578Z,27.90
2018-05-04T17:16:17.608Z,28.40
2018-05-04T17:18:46.437Z,27.70
2018-05-04T17:21:14.494Z,27.90
2018-05-04T17:23:42.554Z,28.00
2018-05-04T17:26:10.631Z,27.80
2018-05-04T17:28:38.776Z,27.70
2018-05-04T17:31:06.745Z,28.10
2018-05-04T17:33:34.811Z,27.70
2018-05-04T17:36:03.545Z,27.90
2018-05-04T17:38:31.605Z,28.30
2018-05-04T17:41:00.103Z,28.70
2018-05-04T17:43:31.810Z,29.00
2018-05-04T17:45:59.838Z,28.70
2018-05-04T17:48:27.902Z,28.80
2018-05-04T17:50:55.954Z,29.30
2018-05-04T17:53:24.052Z,29.60
2018-05-04T17:55:52.106Z,29.80
2018-05-04T17:58:20.168Z,30.10
2018-05-04T18:00:48.216Z,29.40
2018-05-04T18:03:17.132Z,29.80
2018-05-04T18:05:46.640Z,30.00
2018-05-04T18:08:15.114Z,29.60
2018-05-04T18:10:43.943Z,30.20
2018-05-04T18:13:12.017Z,30.10
2018-05-04T18:15:40.066Z,30.00
2018-05-04T18:18:08.095Z,30.00
2018-05-04T18:20:36.157Z,30.00
2018-05-04T18:23:04.193Z,30.70
2018-05-04T18:25:33.162Z,31.10
2018-05-04T18:28:01.592Z,30.80
2018-05-04T18:32:59.776Z,31.70
2018-05-04T18:35:27.837Z,31.50
2018-05-04T18:37:55.918Z,31.90
2018-05-04T18:40:23.967Z,33.10
2018-05-04T18:42:52.011Z,32.40
2018-05-04T18:45:20.082Z,32.70
2018-05-04T18:47:48.897Z,33.20
2018-05-04T18:50:16.962Z,33.10
2018-05-04T18:52:45.019Z,32.60
2018-05-04T18:55:13.117Z,32.80
2018-05-04T18:57:41.190Z,32.80
2018-05-04T19:00:09.305Z,33.60
2018-05-04T19:02:42.929Z,33.80
2018-05-04T19:05:11.864Z,34.20
2018-05-04T19:07:40.166Z,34.20
2018-05-04T19:10:08.574Z,34.70
2018-05-04T19:12:38.421Z,35.00
2018-05-04T19:15:06.475Z,34.90
2018-05-04T19:17:34.517Z,35.10
2018-05-04T19:20:03.372Z,35.20
2018-05-04T19:22:31.413Z,35.20
2018-05-04T19:24:59.521Z,34.90
2018-05-04T19:27:27.689Z,35.20
2018-05-04T19:29:55.724Z,35.10
2018-05-04T19:32:23.836Z,35.30
2018-05-04T19:34:51.885Z,35.60
2018-05-04T19:37:19.927Z,35.90
2018-05-04T19:39:48.042Z,36.80
2018-05-04T19:42:16.075Z,37.70
2018-05-04T19:44:44.114Z,37.10
2018-05-04T19:47:13.674Z,36.90
2018-05-04T19:49:41.793Z,37.00
2018-05-04T19:52:09.897Z,37.10
2018-05-04T19:54:37.890Z,37.00
2018-05-04T19:57:05.968Z,37.10
2018-05-04T19:59:34.022Z,37.50
2018-05-04T20:02:02.092Z,37.90
2018-05-04T20:04:30.161Z,38.30
2018-05-04T20:06:58.313Z,38.30
2018-05-04T20:09:26.328Z,38.40
2018-05-04T20:11:55.002Z,38.40
2018-05-04T20:14:23.078Z,38.80
2018-05-04T20:16:51.463Z,38.80
2018-05-04T20:19:19.540Z,39.00
2018-05-04T20:21:47.621Z,38.80
2018-05-04T20:24:15.654Z,39.20
2018-05-04T20:26:44.878Z,40.10
2018-05-04T20:29:12.952Z,40.00
2018-05-04T20:31:40.997Z,40.10
2018-05-04T20:34:09.048Z,40.00
2018-05-04T20:36:37.113Z,40.20
2018-05-04T20:39:05.225Z,40.30
2018-05-04T20:41:33.253Z,41.10
2018-05-04T20:44:03.582Z,40.50
2018-05-04T20:46:34.282Z,40.70
2018-05-04T20:49:02.802Z,40.90
2018-05-04T20:51:31.622Z,41.80
2018-05-04T20:53:59.705Z,42.00
2018-05-04T20:56:27.758Z,41.50
2018-05-04T20:58:55.900Z,41.80
2018-05-04T21:01:23.964Z,41.40
2018-05-04T21:03:52.845Z,41.80
2018-05-04T21:06:21.710Z,42.10
2018-05-04T21:08:49.731Z,41.80
2018-05-04T21:11:17.809Z,41.10
2018-05-04T21:13:45.878Z,41.10
2018-05-04T21:16:13.927Z,40.80
2018-05-04T21:18:42.802Z,40.60
2018-05-04T21:21:10.901Z,40.00
2018-05-04T21:23:39.698Z,40.40
2018-05-04T21:26:07.762Z,39.70
2018-05-04T21:28:35.821Z,39.70
2018-05-04T21:31:04.652Z,40.80
2018-05-04T21:33:33.101Z,40.00
2018-05-04T21:36:01.355Z,40.30
2018-05-04T21:38:29.275Z,40.50
2018-05-04T21:40:58.052Z,40.90
2018-05-04T21:43:26.126Z,40.20
2018-05-04T21:45:54.976Z,40.00
2018-05-04T21:48:23.441Z,40.20
2018-05-04T21:50:51.866Z,40.30
2018-05-04T21:53:19.935Z,40.60
2018-05-04T21:55:48.006Z,40.70
2018-05-04T22:00:45.897Z,41.20
2018-05-04T22:03:13.934Z,41.50
2018-05-04T22:05:42.765Z,42.50
2018-05-04T22:08:10.815Z,42.70
2018-05-04T22:10:38.911Z,42.40
2018-05-04T22:13:06.955Z,42.40
2018-05-04T22:15:35.806Z,43.30
2018-05-04T22:18:04.562Z,43.90
2018-05-04T22:20:32.599Z,43.50
2018-05-04T22:23:00.670Z,43.70
2018-05-04T22:25:29.488Z,44.60
2018-05-04T22:27:57.536Z,44.20
2018-05-04T22:30:26.332Z,44.60
2018-05-04T22:32:54.525Z,44.50
2018-05-04T22:35:22.631Z,44.60
2018-05-04T22:37:50.634Z,44.20
2018-05-04T22:40:18.719Z,44.60
2018-05-04T22:42:46.817Z,44.70
2018-05-04T22:45:14.845Z,44.60
2018-05-04T22:47:43.897Z,44.70
2018-05-04T22:50:11.929Z,44.70
2018-05-04T22:52:40.023Z,44.60
2018-05-04T22:55:08.173Z,45.20
2018-05-04T22:57:36.253Z,44.80
2018-05-04T23:00:04.300Z,44.70
2018-05-04T23:02:33.078Z,45.50
2018-05-04T23:05:01.879Z,44.70
2018-05-04T23:07:29.986Z,44.70
2018-05-04T23:09:58.018Z,44.70
2018-05-04T23:12:26.846Z,45.00
2018-05-04T23:14:54.910Z,44.90
2018-05-04T23:17:23.089Z,45.00
2018-05-04T23:19:51.202Z,45.10
2018-05-04T23:22:29.158Z,45.20
2018-05-04T23:24:57.250Z,45.30
2018-05-04T23:27:25.320Z,45.50
2018-05-04T23:29:53.376Z,45.50
2018-05-04T23:32:21.416Z,45.60
2018-05-04T23:34:49.467Z,45.60
2018-05-04T23:37:17.608Z,45.90
2018-05-04T23:39:46.494Z,46.00
2018-05-04T23:42:14.529Z,46.00
2018-05-04T23:44:42.635Z,46.00
2018-05-04T23:47:10.837Z,46.10
2018-05-04T23:49:38.882Z,46.30
2018-05-04T23:52:07.051Z,46.30
2018-05-04T23:54:35.192Z,46.30
2018-05-04T23:57:03.227Z,46.50
2018-05-04T23:59:31.275Z,46.60
